sensor_id;sensor_type;location;lat;lon;timestamp;P1;durP1;ratioP1;P2;durP2;ratioP2
69970;SDS011;57301;50.328;8.542;2022-08-19T00:01:27;20.45;;;13.80;;
69970;SDS011;57301;50.328;8.542;2022-08-19T00:03:59;20.10;;;14.20;;
69970;SDS011;57301;50.328;8.542;2022-08-19T00:06:29;20.83;;;13.48;;
69970;SDS011;57301;50.328;8.542;2022-08-19T00:08:57;18.92;;;13.52;;
69970;SDS011;57301;50.328;8.542;2022-08-19T00:11:26;19.10;;;13.15;;
69970;SDS011;57301;50.328;8.542;2022-08-19T00:13:54;18.23;;;12.82;;
69970;SDS011;57301;50.328;8.542;2022-08-19T00:16:23;19.30;;;13.87;;
69970;SDS011;57301;50.328;8.542;2022-08-19T00:18:52;20.98;;;13.60;;
69970;SDS011;57301;50.328;8.542;2022-08-19T00:21:19;21.00;;;14.05;;
69970;SDS011;57301;50.328;8.542;2022-08-19T00:23:46;24.55;;;16.85;;
69970;SDS011;57301;50.328;8.542;2022-08-19T00:26:13;21.23;;;16.23;;
69970;SDS011;57301;50.328;8.542;2022-08-19T00:28:40;20.43;;;14.07;;
69970;SDS011;57301;50.328;8.542;2022-08-19T00:31:07;19.98;;;14.68;;
69970;SDS011;57301;50.328;8.542;2022-08-19T00:33:35;22.10;;;15.32;;
69970;SDS011;57301;50.328;8.542;2022-08-19T00:36:03;19.63;;;13.93;;
69970;SDS011;57301;50.328;8.542;2022-08-19T00:38:33;18.25;;;13.07;;
69970;SDS011;57301;50.328;8.542;2022-08-19T00:41:06;17.20;;;13.50;;
69970;SDS011;57301;50.328;8.542;2022-08-19T00:43:33;18.95;;;13.90;;
69970;SDS011;57301;50.328;8.542;2022-08-19T00:46:01;19.10;;;14.40;;
69970;SDS011;57301;50.328;8.542;2022-08-19T00:48:31;18.85;;;13.93;;
69970;SDS011;57301;50.328;8.542;2022-08-19T00:50:59;22.33;;;14.73;;
69970;SDS011;57301;50.328;8.542;2022-08-19T00:53:27;19.80;;;13.83;;
69970;SDS011;57301;50.328;8.542;2022-08-19T00:55:58;21.08;;;14.57;;
69970;SDS011;57301;50.328;8.542;2022-08-19T00:58:29;18.60;;;13.45;;
69970;SDS011;57301;50.328;8.542;2022-08-19T01:00:59;21.48;;;14.57;;
69970;SDS011;57301;50.328;8.542;2022-08-19T01:03:27;22.17;;;14.95;;
69970;SDS011;57301;50.328;8.542;2022-08-19T01:06:15;19.37;;;13.73;;
69970;SDS011;57301;50.328;8.542;2022-08-19T01:08:46;22.50;;;15.38;;
69970;SDS011;57301;50.328;8.542;2022-08-19T01:11:15;19.55;;;14.23;;
69970;SDS011;57301;50.328;8.542;2022-08-19T01:13:42;17.63;;;13.10;;
69970;SDS011;57301;50.328;8.542;2022-08-19T01:16:15;18.55;;;14.35;;
69970;SDS011;57301;50.328;8.542;2022-08-19T01:18:44;18.77;;;14.23;;
69970;SDS011;57301;50.328;8.542;2022-08-19T01:21:28;20.95;;;14.32;;
69970;SDS011;57301;50.328;8.542;2022-08-19T01:23:58;19.05;;;13.88;;
69970;SDS011;57301;50.328;8.542;2022-08-19T01:26:26;19.45;;;13.48;;
69970;SDS011;57301;50.328;8.542;2022-08-19T01:28:53;20.08;;;13.60;;
69970;SDS011;57301;50.328;8.542;2022-08-19T01:31:26;20.47;;;13.80;;
69970;SDS011;57301;50.328;8.542;2022-08-19T01:33:58;18.85;;;13.88;;
69970;SDS011;57301;50.328;8.542;2022-08-19T01:36:32;19.05;;;13.50;;
69970;SDS011;57301;50.328;8.542;2022-08-19T01:39:03;21.20;;;14.00;;
69970;SDS011;57301;50.328;8.542;2022-08-19T01:41:32;18.20;;;14.07;;
69970;SDS011;57301;50.328;8.542;2022-08-19T01:44:00;18.57;;;13.53;;
69970;SDS011;57301;50.328;8.542;2022-08-19T01:46:44;19.88;;;15.05;;
69970;SDS011;57301;50.328;8.542;2022-08-19T01:49:14;20.00;;;14.90;;
69970;SDS011;57301;50.328;8.542;2022-08-19T01:51:42;20.45;;;13.95;;
69970;SDS011;57301;50.328;8.542;2022-08-19T01:54:10;19.92;;;13.82;;
69970;SDS011;57301;50.328;8.542;2022-08-19T01:56:48;17.90;;;13.77;;
69970;SDS011;57301;50.328;8.542;2022-08-19T01:59:17;20.83;;;14.52;;
69970;SDS011;57301;50.328;8.542;2022-08-19T02:01:46;21.65;;;13.73;;
69970;SDS011;57301;50.328;8.542;2022-08-19T02:04:13;19.75;;;12.65;;
69970;SDS011;57301;50.328;8.542;2022-08-19T02:06:40;18.40;;;13.30;;
69970;SDS011;57301;50.328;8.542;2022-08-19T02:09:07;18.93;;;13.47;;
69970;SDS011;57301;50.328;8.542;2022-08-19T02:11:34;17.92;;;13.52;;
69970;SDS011;57301;50.328;8.542;2022-08-19T02:14:03;18.60;;;13.23;;
69970;SDS011;57301;50.328;8.542;2022-08-19T02:16:32;18.17;;;12.65;;
69970;SDS011;57301;50.328;8.542;2022-08-19T02:18:59;20.92;;;12.98;;
69970;SDS011;57301;50.328;8.542;2022-08-19T02:21:29;18.50;;;13.43;;
69970;SDS011;57301;50.328;8.542;2022-08-19T02:23:56;18.05;;;13.02;;
69970;SDS011;57301;50.328;8.542;2022-08-19T02:26:23;17.38;;;12.95;;
69970;SDS011;57301;50.328;8.542;2022-08-19T02:28:51;20.77;;;14.27;;
69970;SDS011;57301;50.328;8.542;2022-08-19T02:31:19;23.33;;;14.40;;
69970;SDS011;57301;50.328;8.542;2022-08-19T02:33:47;23.77;;;15.83;;
69970;SDS011;57301;50.328;8.542;2022-08-19T02:36:14;21.65;;;15.80;;
69970;SDS011;57301;50.328;8.542;2022-08-19T02:38:46;22.98;;;16.08;;
69970;SDS011;57301;50.328;8.542;2022-08-19T02:41:21;23.70;;;16.02;;
69970;SDS011;57301;50.328;8.542;2022-08-19T02:43:52;22.58;;;15.90;;
69970;SDS011;57301;50.328;8.542;2022-08-19T02:46:44;21.20;;;15.47;;
69970;SDS011;57301;50.328;8.542;2022-08-19T02:49:12;20.70;;;15.38;;
69970;SDS011;57301;50.328;8.542;2022-08-19T02:51:43;21.67;;;15.13;;
69970;SDS011;57301;50.328;8.542;2022-08-19T02:54:11;22.50;;;15.60;;
69970;SDS011;57301;50.328;8.542;2022-08-19T02:56:39;24.13;;;16.00;;
69970;SDS011;57301;50.328;8.542;2022-08-19T02:59:07;21.27;;;15.40;;
69970;SDS011;57301;50.328;8.542;2022-08-19T03:01:37;20.88;;;16.23;;
69970;SDS011;57301;50.328;8.542;2022-08-19T03:04:07;23.42;;;15.48;;
69970;SDS011;57301;50.328;8.542;2022-08-19T03:06:36;23.30;;;16.27;;
69970;SDS011;57301;50.328;8.542;2022-08-19T03:09:04;22.15;;;15.20;;
69970;SDS011;57301;50.328;8.542;2022-08-19T03:11:31;22.70;;;15.83;;
69970;SDS011;57301;50.328;8.542;2022-08-19T03:13:59;21.35;;;15.65;;
69970;SDS011;57301;50.328;8.542;2022-08-19T03:16:27;21.52;;;15.55;;
69970;SDS011;57301;50.328;8.542;2022-08-19T03:18:58;22.17;;;15.18;;
69970;SDS011;57301;50.328;8.542;2022-08-19T03:21:27;21.35;;;15.90;;
69970;SDS011;57301;50.328;8.542;2022-08-19T03:23:56;21.27;;;14.67;;
69970;SDS011;57301;50.328;8.542;2022-08-19T03:26:24;20.77;;;15.65;;
69970;SDS011;57301;50.328;8.542;2022-08-19T03:28:50;22.27;;;15.90;;
69970;SDS011;57301;50.328;8.542;2022-08-19T03:31:24;22.65;;;15.82;;
69970;SDS011;57301;50.328;8.542;2022-08-19T03:34:14;20.73;;;14.70;;
69970;SDS011;57301;50.328;8.542;2022-08-19T03:36:46;20.10;;;14.80;;
69970;SDS011;57301;50.328;8.542;2022-08-19T03:39:13;23.73;;;15.02;;
69970;SDS011;57301;50.328;8.542;2022-08-19T03:41:42;21.90;;;15.25;;
69970;SDS011;57301;50.328;8.542;2022-08-19T03:44:13;22.45;;;16.17;;
69970;SDS011;57301;50.328;8.542;2022-08-19T03:46:44;21.80;;;15.32;;
69970;SDS011;57301;50.328;8.542;2022-08-19T03:49:16;24.43;;;15.63;;
69970;SDS011;57301;50.328;8.542;2022-08-19T03:51:44;19.77;;;13.95;;
69970;SDS011;57301;50.328;8.542;2022-08-19T03:54:12;22.60;;;15.35;;
69970;SDS011;57301;50.328;8.542;2022-08-19T03:56:40;20.80;;;15.15;;
69970;SDS011;57301;50.328;8.542;2022-08-19T03:59:09;20.88;;;14.45;;
69970;SDS011;57301;50.328;8.542;2022-08-19T04:01:37;22.87;;;14.67;;
69970;SDS011;57301;50.328;8.542;2022-08-19T04:04:04;20.98;;;14.55;;
69970;SDS011;57301;50.328;8.542;2022-08-19T04:06:33;20.60;;;14.38;;
69970;SDS011;57301;50.328;8.542;2022-08-19T04:09:06;19.15;;;14.82;;
69970;SDS011;57301;50.328;8.542;2022-08-19T04:11:36;21.23;;;15.50;;
69970;SDS011;57301;50.328;8.542;2022-08-19T04:14:11;21.53;;;14.83;;
69970;SDS011;57301;50.328;8.542;2022-08-19T04:16:40;20.58;;;14.70;;
69970;SDS011;57301;50.328;8.542;2022-08-19T04:19:07;21.77;;;15.20;;
69970;SDS011;57301;50.328;8.542;2022-08-19T04:21:33;21.20;;;15.75;;
69970;SDS011;57301;50.328;8.542;2022-08-19T04:24:00;22.23;;;15.38;;
69970;SDS011;57301;50.328;8.542;2022-08-19T04:26:31;21.97;;;15.53;;
69970;SDS011;57301;50.328;8.542;2022-08-19T04:29:00;24.75;;;16.65;;
69970;SDS011;57301;50.328;8.542;2022-08-19T04:31:30;21.95;;;15.07;;
69970;SDS011;57301;50.328;8.542;2022-08-19T04:33:59;24.55;;;15.68;;
69970;SDS011;57301;50.328;8.542;2022-08-19T04:36:30;22.35;;;15.07;;
69970;SDS011;57301;50.328;8.542;2022-08-19T04:38:59;21.97;;;15.83;;
69970;SDS011;57301;50.328;8.542;2022-08-19T04:41:29;24.05;;;15.80;;
69970;SDS011;57301;50.328;8.542;2022-08-19T04:44:14;23.40;;;15.60;;
69970;SDS011;57301;50.328;8.542;2022-08-19T04:46:48;20.77;;;15.10;;
69970;SDS011;57301;50.328;8.542;2022-08-19T04:49:18;22.65;;;15.88;;
69970;SDS011;57301;50.328;8.542;2022-08-19T04:51:47;21.87;;;15.63;;
69970;SDS011;57301;50.328;8.542;2022-08-19T04:54:16;21.85;;;15.35;;
69970;SDS011;57301;50.328;8.542;2022-08-19T04:57:03;21.67;;;14.68;;
69970;SDS011;57301;50.328;8.542;2022-08-19T04:59:32;24.27;;;15.07;;
69970;SDS011;57301;50.328;8.542;2022-08-19T05:01:59;20.52;;;14.90;;
69970;SDS011;57301;50.328;8.542;2022-08-19T05:04:26;23.10;;;15.93;;
69970;SDS011;57301;50.328;8.542;2022-08-19T05:06:54;21.95;;;15.55;;
69970;SDS011;57301;50.328;8.542;2022-08-19T05:09:26;21.50;;;15.13;;
69970;SDS011;57301;50.328;8.542;2022-08-19T05:12:01;21.50;;;15.73;;
69970;SDS011;57301;50.328;8.542;2022-08-19T05:14:28;22.83;;;14.68;;
69970;SDS011;57301;50.328;8.542;2022-08-19T05:16:55;22.90;;;14.90;;
69970;SDS011;57301;50.328;8.542;2022-08-19T05:19:41;22.10;;;14.73;;
69970;SDS011;57301;50.328;8.542;2022-08-19T05:22:26;19.70;;;15.05;;
69970;SDS011;57301;50.328;8.542;2022-08-19T05:25:02;23.75;;;15.35;;
69970;SDS011;57301;50.328;8.542;2022-08-19T05:27:39;21.08;;;14.60;;
69970;SDS011;57301;50.328;8.542;2022-08-19T05:30:07;23.97;;;14.80;;
69970;SDS011;57301;50.328;8.542;2022-08-19T05:32:34;18.83;;;14.00;;
69970;SDS011;57301;50.328;8.542;2022-08-19T05:35:00;18.35;;;13.48;;
69970;SDS011;57301;50.328;8.542;2022-08-19T05:37:27;18.48;;;12.98;;
69970;SDS011;57301;50.328;8.542;2022-08-19T05:39:54;16.90;;;12.50;;
69970;SDS011;57301;50.328;8.542;2022-08-19T05:42:21;16.13;;;11.93;;
69970;SDS011;57301;50.328;8.542;2022-08-19T05:44:49;18.48;;;12.55;;
69970;SDS011;57301;50.328;8.542;2022-08-19T05:47:16;16.75;;;12.60;;
69970;SDS011;57301;50.328;8.542;2022-08-19T05:49:45;17.25;;;12.43;;
69970;SDS011;57301;50.328;8.542;2022-08-19T05:52:13;16.38;;;11.85;;
69970;SDS011;57301;50.328;8.542;2022-08-19T05:54:44;15.50;;;12.20;;
69970;SDS011;57301;50.328;8.542;2022-08-19T05:57:16;14.77;;;11.90;;
69970;SDS011;57301;50.328;8.542;2022-08-19T05:59:44;16.05;;;12.57;;
69970;SDS011;57301;50.328;8.542;2022-08-19T06:02:12;16.63;;;12.23;;
69970;SDS011;57301;50.328;8.542;2022-08-19T06:04:40;14.30;;;11.95;;
69970;SDS011;57301;50.328;8.542;2022-08-19T06:07:08;16.70;;;11.63;;
69970;SDS011;57301;50.328;8.542;2022-08-19T06:09:37;15.05;;;10.40;;
69970;SDS011;57301;50.328;8.542;2022-08-19T06:12:04;16.27;;;11.57;;
69970;SDS011;57301;50.328;8.542;2022-08-19T06:14:32;13.55;;;10.43;;
69970;SDS011;57301;50.328;8.542;2022-08-19T06:17:05;17.90;;;11.45;;
69970;SDS011;57301;50.328;8.542;2022-08-19T06:19:32;13.60;;;10.23;;
69970;SDS011;57301;50.328;8.542;2022-08-19T06:22:06;18.35;;;9.98;;
69970;SDS011;57301;50.328;8.542;2022-08-19T06:24:33;15.02;;;10.35;;
69970;SDS011;57301;50.328;8.542;2022-08-19T06:27:00;13.45;;;10.13;;
69970;SDS011;57301;50.328;8.542;2022-08-19T06:29:27;12.00;;;9.70;;
69970;SDS011;57301;50.328;8.542;2022-08-19T06:31:56;13.67;;;9.93;;
69970;SDS011;57301;50.328;8.542;2022-08-19T06:34:25;11.88;;;9.55;;
69970;SDS011;57301;50.328;8.542;2022-08-19T06:36:54;14.68;;;9.10;;
69970;SDS011;57301;50.328;8.542;2022-08-19T06:39:23;16.13;;;9.18;;
69970;SDS011;57301;50.328;8.542;2022-08-19T06:41:54;13.77;;;9.40;;
69970;SDS011;57301;50.328;8.542;2022-08-19T06:44:25;13.00;;;9.40;;
69970;SDS011;57301;50.328;8.542;2022-08-19T06:46:53;12.73;;;8.73;;
69970;SDS011;57301;50.328;8.542;2022-08-19T06:49:21;17.90;;;8.88;;
69970;SDS011;57301;50.328;8.542;2022-08-19T06:51:49;13.23;;;8.63;;
69970;SDS011;57301;50.328;8.542;2022-08-19T06:54:17;15.85;;;9.45;;
69970;SDS011;57301;50.328;8.542;2022-08-19T06:56:45;10.80;;;8.50;;
69970;SDS011;57301;50.328;8.542;2022-08-19T06:59:17;10.32;;;7.82;;
69970;SDS011;57301;50.328;8.542;2022-08-19T07:01:49;14.23;;;8.18;;
69970;SDS011;57301;50.328;8.542;2022-08-19T07:04:19;11.02;;;7.65;;
69970;SDS011;57301;50.328;8.542;2022-08-19T07:06:47;8.52;;;7.10;;
69970;SDS011;57301;50.328;8.542;2022-08-19T07:09:20;9.83;;;6.50;;
69970;SDS011;57301;50.328;8.542;2022-08-19T07:11:49;9.93;;;6.40;;
69970;SDS011;57301;50.328;8.542;2022-08-19T07:14:19;7.88;;;6.15;;
69970;SDS011;57301;50.328;8.542;2022-08-19T07:16:49;8.02;;;5.95;;
69970;SDS011;57301;50.328;8.542;2022-08-19T07:19:18;9.15;;;6.05;;
69970;SDS011;57301;50.328;8.542;2022-08-19T07:21:46;9.97;;;6.03;;
69970;SDS011;57301;50.328;8.542;2022-08-19T07:24:14;7.13;;;5.53;;
69970;SDS011;57301;50.328;8.542;2022-08-19T07:26:42;8.48;;;5.68;;
69970;SDS011;57301;50.328;8.542;2022-08-19T07:29:10;7.13;;;6.05;;
69970;SDS011;57301;50.328;8.542;2022-08-19T07:31:38;10.35;;;6.60;;
69970;SDS011;57301;50.328;8.542;2022-08-19T07:34:11;8.37;;;5.90;;
69970;SDS011;57301;50.328;8.542;2022-08-19T07:36:40;8.68;;;5.50;;
69970;SDS011;57301;50.328;8.542;2022-08-19T07:39:12;10.93;;;5.75;;
69970;SDS011;57301;50.328;8.542;2022-08-19T07:41:41;8.50;;;6.25;;
69970;SDS011;57301;50.328;8.542;2022-08-19T07:44:09;10.50;;;6.65;;
69970;SDS011;57301;50.328;8.542;2022-08-19T07:46:37;9.47;;;5.93;;
69970;SDS011;57301;50.328;8.542;2022-08-19T07:49:06;7.00;;;5.20;;
69970;SDS011;57301;50.328;8.542;2022-08-19T07:51:34;8.75;;;5.53;;
69970;SDS011;57301;50.328;8.542;2022-08-19T07:54:02;8.02;;;5.85;;
69970;SDS011;57301;50.328;8.542;2022-08-19T07:56:29;8.25;;;6.40;;
69970;SDS011;57301;50.328;8.542;2022-08-19T07:58:56;7.27;;;5.80;;
69970;SDS011;57301;50.328;8.542;2022-08-19T08:01:24;8.00;;;5.65;;
69970;SDS011;57301;50.328;8.542;2022-08-19T08:03:54;10.15;;;5.72;;
69970;SDS011;57301;50.328;8.542;2022-08-19T08:06:41;8.05;;;5.95;;
69970;SDS011;57301;50.328;8.542;2022-08-19T08:09:28;7.70;;;5.88;;
69970;SDS011;57301;50.328;8.542;2022-08-19T08:12:03;7.80;;;6.60;;
69970;SDS011;57301;50.328;8.542;2022-08-19T08:14:53;6.93;;;5.80;;
69970;SDS011;57301;50.328;8.542;2022-08-19T08:17:23;8.63;;;6.20;;
69970;SDS011;57301;50.328;8.542;2022-08-19T08:20:11;10.05;;;6.68;;
69970;SDS011;57301;50.328;8.542;2022-08-19T08:22:43;11.07;;;6.28;;
69970;SDS011;57301;50.328;8.542;2022-08-19T08:25:29;8.73;;;6.20;;
69970;SDS011;57301;50.328;8.542;2022-08-19T08:27:57;9.65;;;7.15;;
69970;SDS011;57301;50.328;8.542;2022-08-19T08:30:27;8.32;;;6.00;;
69970;SDS011;57301;50.328;8.542;2022-08-19T08:32:58;10.20;;;6.70;;
69970;SDS011;57301;50.328;8.542;2022-08-19T08:35:25;8.80;;;6.72;;
69970;SDS011;57301;50.328;8.542;2022-08-19T08:37:52;8.70;;;6.57;;
69970;SDS011;57301;50.328;8.542;2022-08-19T08:40:22;8.73;;;6.82;;
69970;SDS011;57301;50.328;8.542;2022-08-19T08:42:55;17.73;;;13.45;;
69970;SDS011;57301;50.328;8.542;2022-08-19T08:45:28;14.07;;;11.30;;
69970;SDS011;57301;50.328;8.542;2022-08-19T08:48:13;10.48;;;8.43;;
69970;SDS011;57301;50.328;8.542;2022-08-19T08:50:49;11.93;;;9.47;;
69970;SDS011;57301;50.328;8.542;2022-08-19T08:53:20;11.27;;;8.60;;
69970;SDS011;57301;50.328;8.542;2022-08-19T08:55:58;13.15;;;8.48;;
69970;SDS011;57301;50.328;8.542;2022-08-19T08:59:12;11.45;;;9.45;;
69970;SDS011;57301;50.328;8.542;2022-08-19T09:01:28;9.30;;;8.30;;
69970;SDS011;57301;50.328;8.542;2022-08-19T09:03:56;10.33;;;7.63;;
69970;SDS011;57301;50.328;8.542;2022-08-19T09:06:44;11.00;;;8.60;;
69970;SDS011;57301;50.328;8.542;2022-08-19T09:09:56;10.00;;;8.70;;
69970;SDS011;57301;50.328;8.542;2022-08-19T09:12:35;11.52;;;9.02;;
69970;SDS011;57301;50.328;8.542;2022-08-19T09:15:22;11.35;;;9.57;;
69970;SDS011;57301;50.328;8.542;2022-08-19T09:17:59;13.13;;;9.27;;
69970;SDS011;57301;50.328;8.542;2022-08-19T09:20:27;11.48;;;8.35;;
69970;SDS011;57301;50.328;8.542;2022-08-19T09:22:54;11.32;;;9.25;;
69970;SDS011;57301;50.328;8.542;2022-08-19T09:25:22;12.10;;;8.30;;
69970;SDS011;57301;50.328;8.542;2022-08-19T09:27:52;10.93;;;8.68;;
69970;SDS011;57301;50.328;8.542;2022-08-19T09:30:29;12.57;;;9.57;;
69970;SDS011;57301;50.328;8.542;2022-08-19T09:32:58;12.05;;;8.45;;
69970;SDS011;57301;50.328;8.542;2022-08-19T09:35:26;11.40;;;9.50;;
69970;SDS011;57301;50.328;8.542;2022-08-19T09:37:55;15.63;;;9.52;;
69970;SDS011;57301;50.328;8.542;2022-08-19T09:40:25;12.93;;;10.20;;
69970;SDS011;57301;50.328;8.542;2022-08-19T09:42:55;14.07;;;9.57;;
69970;SDS011;57301;50.328;8.542;2022-08-19T09:45:23;14.25;;;10.63;;
69970;SDS011;57301;50.328;8.542;2022-08-19T09:47:50;15.52;;;10.88;;
69970;SDS011;57301;50.328;8.542;2022-08-19T09:50:20;11.40;;;9.40;;
69970;SDS011;57301;50.328;8.542;2022-08-19T09:52:47;11.82;;;9.88;;
69970;SDS011;57301;50.328;8.542;2022-08-19T09:55:22;12.27;;;9.73;;
69970;SDS011;57301;50.328;8.542;2022-08-19T09:57:49;11.68;;;9.48;;
69970;SDS011;57301;50.328;8.542;2022-08-19T10:00:15;12.13;;;9.70;;
69970;SDS011;57301;50.328;8.542;2022-08-19T10:02:42;12.50;;;10.40;;
69970;SDS011;57301;50.328;8.542;2022-08-19T10:05:10;14.15;;;11.35;;
69970;SDS011;57301;50.328;8.542;2022-08-19T10:07:56;14.37;;;11.70;;
69970;SDS011;57301;50.328;8.542;2022-08-19T10:10:23;13.85;;;11.43;;
69970;SDS011;57301;50.328;8.542;2022-08-19T10:12:50;14.27;;;11.45;;
69970;SDS011;57301;50.328;8.542;2022-08-19T10:15:16;11.00;;;9.90;;
69970;SDS011;57301;50.328;8.542;2022-08-19T10:17:54;12.00;;;10.27;;
69970;SDS011;57301;50.328;8.542;2022-08-19T10:20:21;11.00;;;9.90;;
69970;SDS011;57301;50.328;8.542;2022-08-19T10:22:49;19.75;;;17.08;;
69970;SDS011;57301;50.328;8.542;2022-08-19T10:25:18;14.27;;;11.13;;
69970;SDS011;57301;50.328;8.542;2022-08-19T10:27:44;11.00;;;9.45;;
69970;SDS011;57301;50.328;8.542;2022-08-19T10:30:16;11.20;;;10.10;;
69970;SDS011;57301;50.328;8.542;2022-08-19T10:32:45;13.50;;;10.50;;
69970;SDS011;57301;50.328;8.542;2022-08-19T10:35:12;11.75;;;10.20;;
69970;SDS011;57301;50.328;8.542;2022-08-19T10:37:47;12.02;;;10.73;;
69970;SDS011;57301;50.328;8.542;2022-08-19T10:40:25;14.00;;;10.90;;
69970;SDS011;57301;50.328;8.542;2022-08-19T10:42:54;14.10;;;10.57;;
69970;SDS011;57301;50.328;8.542;2022-08-19T10:45:22;11.43;;;10.03;;
69970;SDS011;57301;50.328;8.542;2022-08-19T10:47:53;13.52;;;10.23;;
69970;SDS011;57301;50.328;8.542;2022-08-19T10:50:20;11.70;;;9.93;;
69970;SDS011;57301;50.328;8.542;2022-08-19T10:53:07;11.77;;;9.70;;
69970;SDS011;57301;50.328;8.542;2022-08-19T10:55:35;11.77;;;9.27;;
69970;SDS011;57301;50.328;8.542;2022-08-19T10:58:20;10.73;;;9.20;;
69970;SDS011;57301;50.328;8.542;2022-08-19T11:00:53;11.60;;;9.65;;
69970;SDS011;57301;50.328;8.542;2022-08-19T11:03:25;14.02;;;11.27;;
69970;SDS011;57301;50.328;8.542;2022-08-19T11:05:58;11.20;;;10.02;;
69970;SDS011;57301;50.328;8.542;2022-08-19T11:08:28;11.80;;;9.57;;
69970;SDS011;57301;50.328;8.542;2022-08-19T11:10:58;10.53;;;9.20;;
69970;SDS011;57301;50.328;8.542;2022-08-19T11:13:27;13.10;;;9.38;;
69970;SDS011;57301;50.328;8.542;2022-08-19T11:16:05;15.35;;;13.75;;
69970;SDS011;57301;50.328;8.542;2022-08-19T11:18:35;18.75;;;15.55;;
69970;SDS011;57301;50.328;8.542;2022-08-19T11:21:11;14.77;;;10.70;;
69970;SDS011;57301;50.328;8.542;2022-08-19T11:23:59;13.40;;;11.33;;
69970;SDS011;57301;50.328;8.542;2022-08-19T11:26:46;12.55;;;11.25;;
69970;SDS011;57301;50.328;8.542;2022-08-19T11:29:18;13.98;;;10.50;;
69970;SDS011;57301;50.328;8.542;2022-08-19T11:31:47;12.75;;;10.40;;
69970;SDS011;57301;50.328;8.542;2022-08-19T11:34:17;12.52;;;10.32;;
69970;SDS011;57301;50.328;8.542;2022-08-19T11:36:47;12.03;;;10.60;;
69970;SDS011;57301;50.328;8.542;2022-08-19T11:39:16;10.95;;;9.68;;
69970;SDS011;57301;50.328;8.542;2022-08-19T11:41:45;12.80;;;10.05;;
69970;SDS011;57301;50.328;8.542;2022-08-19T11:44:12;10.23;;;8.93;;
69970;SDS011;57301;50.328;8.542;2022-08-19T11:46:40;10.50;;;9.40;;
69970;SDS011;57301;50.328;8.542;2022-08-19T11:49:12;10.47;;;9.03;;
69970;SDS011;57301;50.328;8.542;2022-08-19T11:51:40;11.50;;;9.82;;
69970;SDS011;57301;50.328;8.542;2022-08-19T11:54:09;10.38;;;9.23;;
69970;SDS011;57301;50.328;8.542;2022-08-19T11:56:37;11.90;;;9.77;;
69970;SDS011;57301;50.328;8.542;2022-08-19T11:59:04;11.15;;;8.93;;
69970;SDS011;57301;50.328;8.542;2022-08-19T12:01:30;9.70;;;8.70;;
69970;SDS011;57301;50.328;8.542;2022-08-19T12:03:58;11.63;;;9.48;;
69970;SDS011;57301;50.328;8.542;2022-08-19T12:06:29;10.80;;;9.60;;
69970;SDS011;57301;50.328;8.542;2022-08-19T12:08:58;10.82;;;9.13;;
69970;SDS011;57301;50.328;8.542;2022-08-19T12:11:27;12.02;;;8.57;;
69970;SDS011;57301;50.328;8.542;2022-08-19T12:13:59;9.40;;;8.50;;
69970;SDS011;57301;50.328;8.542;2022-08-19T12:16:27;9.45;;;7.68;;
69970;SDS011;57301;50.328;8.542;2022-08-19T12:18:58;10.30;;;7.22;;
69970;SDS011;57301;50.328;8.542;2022-08-19T12:21:30;11.98;;;7.25;;
69970;SDS011;57301;50.328;8.542;2022-08-19T12:23:59;7.35;;;6.60;;
69970;SDS011;57301;50.328;8.542;2022-08-19T12:26:26;9.40;;;6.50;;
69970;SDS011;57301;50.328;8.542;2022-08-19T12:28:54;7.18;;;6.00;;
69970;SDS011;57301;50.328;8.542;2022-08-19T12:31:21;6.82;;;6.10;;
69970;SDS011;57301;50.328;8.542;2022-08-19T12:33:47;7.00;;;6.30;;
69970;SDS011;57301;50.328;8.542;2022-08-19T12:36:14;9.32;;;8.30;;
69970;SDS011;57301;50.328;8.542;2022-08-19T12:38:42;11.00;;;9.90;;
69970;SDS011;57301;50.328;8.542;2022-08-19T12:41:11;8.82;;;7.47;;
69970;SDS011;57301;50.328;8.542;2022-08-19T12:43:39;14.05;;;10.63;;
69970;SDS011;57301;50.328;8.542;2022-08-19T12:46:05;10.18;;;8.55;;
69970;SDS011;57301;50.328;8.542;2022-08-19T12:48:36;8.20;;;7.28;;
69970;SDS011;57301;50.328;8.542;2022-08-19T12:51:12;7.30;;;6.60;;
69970;SDS011;57301;50.328;8.542;2022-08-19T12:53:41;9.32;;;6.25;;
69970;SDS011;57301;50.328;8.542;2022-08-19T12:56:09;10.68;;;5.70;;
69970;SDS011;57301;50.328;8.542;2022-08-19T12:58:38;9.55;;;5.50;;
69970;SDS011;57301;50.328;8.542;2022-08-19T13:01:12;6.45;;;5.72;;
69970;SDS011;57301;50.328;8.542;2022-08-19T13:03:44;7.00;;;4.90;;
69970;SDS011;57301;50.328;8.542;2022-08-19T13:06:11;6.72;;;4.50;;
69970;SDS011;57301;50.328;8.542;2022-08-19T13:08:38;5.18;;;4.68;;
69970;SDS011;57301;50.328;8.542;2022-08-19T13:13:39;5.13;;;4.38;;
69970;SDS011;57301;50.328;8.542;2022-08-19T13:16:08;5.87;;;3.83;;
69970;SDS011;57301;50.328;8.542;2022-08-19T13:18:37;4.82;;;4.10;;
69970;SDS011;57301;50.328;8.542;2022-08-19T13:21:05;5.72;;;4.18;;
69970;SDS011;57301;50.328;8.542;2022-08-19T13:23:34;6.60;;;4.50;;
69970;SDS011;57301;50.328;8.542;2022-08-19T13:26:03;5.80;;;4.10;;
69970;SDS011;57301;50.328;8.542;2022-08-19T13:28:31;7.63;;;4.30;;
69970;SDS011;57301;50.328;8.542;2022-08-19T13:31:17;5.53;;;4.30;;
69970;SDS011;57301;50.328;8.542;2022-08-19T13:34:04;6.88;;;4.32;;
69970;SDS011;57301;50.328;8.542;2022-08-19T13:36:32;6.03;;;4.00;;
69970;SDS011;57301;50.328;8.542;2022-08-19T13:38:59;4.97;;;4.32;;
69970;SDS011;57301;50.328;8.542;2022-08-19T13:41:26;5.30;;;3.90;;
69970;SDS011;57301;50.328;8.542;2022-08-19T13:43:53;5.60;;;4.13;;
69970;SDS011;57301;50.328;8.542;2022-08-19T13:46:20;7.05;;;4.80;;
69970;SDS011;57301;50.328;8.542;2022-08-19T13:48:47;5.88;;;4.07;;
69970;SDS011;57301;50.328;8.542;2022-08-19T13:51:15;4.78;;;3.90;;
69970;SDS011;57301;50.328;8.542;2022-08-19T13:53:42;6.03;;;3.67;;
69970;SDS011;57301;50.328;8.542;2022-08-19T13:56:14;5.80;;;3.30;;
69970;SDS011;57301;50.328;8.542;2022-08-19T13:58:42;5.43;;;3.90;;
69970;SDS011;57301;50.328;8.542;2022-08-19T14:01:09;4.40;;;3.88;;
69970;SDS011;57301;50.328;8.542;2022-08-19T14:03:37;5.70;;;4.53;;
69970;SDS011;57301;50.328;8.542;2022-08-19T14:06:03;4.23;;;3.60;;
69970;SDS011;57301;50.328;8.542;2022-08-19T14:08:30;4.15;;;3.50;;
69970;SDS011;57301;50.328;8.542;2022-08-19T14:10:58;4.47;;;3.95;;
69970;SDS011;57301;50.328;8.542;2022-08-19T14:13:31;5.85;;;3.72;;
69970;SDS011;57301;50.328;8.542;2022-08-19T14:15:59;5.82;;;3.70;;
69970;SDS011;57301;50.328;8.542;2022-08-19T14:18:26;5.50;;;3.97;;
69970;SDS011;57301;50.328;8.542;2022-08-19T14:20:56;8.23;;;6.10;;
69970;SDS011;57301;50.328;8.542;2022-08-19T14:23:24;7.35;;;4.22;;
69970;SDS011;57301;50.328;8.542;2022-08-19T14:25:50;5.07;;;3.95;;
69970;SDS011;57301;50.328;8.542;2022-08-19T14:28:17;4.95;;;3.97;;
69970;SDS011;57301;50.328;8.542;2022-08-19T14:30:44;6.13;;;4.00;;
69970;SDS011;57301;50.328;8.542;2022-08-19T14:33:10;6.70;;;3.83;;
69970;SDS011;57301;50.328;8.542;2022-08-19T14:35:37;5.13;;;4.10;;
69970;SDS011;57301;50.328;8.542;2022-08-19T14:38:04;4.72;;;3.90;;
69970;SDS011;57301;50.328;8.542;2022-08-19T14:40:32;5.18;;;3.53;;
69970;SDS011;57301;50.328;8.542;2022-08-19T14:43:01;5.13;;;3.73;;
69970;SDS011;57301;50.328;8.542;2022-08-19T14:45:31;5.30;;;3.63;;
69970;SDS011;57301;50.328;8.542;2022-08-19T14:48:01;4.88;;;3.95;;
69970;SDS011;57301;50.328;8.542;2022-08-19T14:50:28;5.18;;;4.30;;
69970;SDS011;57301;50.328;8.542;2022-08-19T14:52:59;4.18;;;3.75;;